CheckWX is a tool to help pilots better visualize weather data.  It is not intended as a substitute for an official pre-flight weather briefing.

02:51:07 UTC

KPSF METAR
Pittsfield Municipal Airport
Pittsfield, Massachusetts, USA
Current

57 mins ago

KPSF 230154Z AUTO 25003KT 10SM CLR 22/17 A3000 RMK AO2 SLP137 T02170167 $
Observed
Sep-23 @ 01:54 UTC
Wind
  • 250° at 3 KTS
Visibility
10 SM
Flight Rules
VFR
Cloud Levels
  • Clear skies
Temperature
22°C / 72°F
Dewpoint
17°C / 63°F
Humidity
73%
Altimeter
30" Hg
Pressure
1015.92 hPa
Previous

2 hours ago

KPSF 230054Z AUTO 32003KT 10SM CLR 20/17 A3001 RMK AO2 SLP145 T02000172 $
Observed
Sep-23 @ 00:54 UTC
Wind
  • 320° at 3 KTS
Visibility
10 SM
Flight Rules
VFR
Cloud Levels
  • Clear skies
Temperature
20°C / 68°F
Dewpoint
17°C / 63°F
Humidity
83%
Altimeter
30.01" Hg
Pressure
1016.22 hPa
Previous

3 hours ago

KPSF 222354Z AUTO 27003KT 10SM CLR 22/17 A3001 RMK AO2 SLP145 T02170172 10283 20217 56005 $
Observed
Sep-22 @ 23:54 UTC
Wind
  • 270° at 3 KTS
Visibility
10 SM
Flight Rules
VFR
Cloud Levels
  • Clear skies
Temperature
22°C / 72°F
Dewpoint
17°C / 63°F
Humidity
73%
Altimeter
30.01" Hg
Pressure
1016.22 hPa